createdAt,value
2023-02-22T00:00:19.317Z,50.35
2023-02-22T00:02:48.422Z,70.10
2023-02-22T00:05:17.044Z,54.03
2023-02-22T00:07:44.691Z,50.17
2023-02-22T00:10:14.548Z,44.05
2023-02-22T00:12:42.495Z,43.40
2023-02-22T00:15:09.909Z,45.55
2023-02-22T00:17:37.006Z,38.15
2023-02-22T00:20:06.764Z,48.40
2023-02-22T00:22:33.922Z,37.00
2023-02-22T00:25:00.955Z,41.00
2023-02-22T00:27:28.095Z,53.05
2023-02-22T00:29:56.483Z,52.70
2023-02-22T00:32:24.420Z,42.47
2023-02-22T00:34:54.785Z,43.15
2023-02-22T00:37:21.943Z,45.88
2023-02-22T00:39:49.685Z,42.75
2023-02-22T00:42:17.218Z,47.28
2023-02-22T00:44:44.246Z,43.42
2023-02-22T00:47:11.424Z,52.63
2023-02-22T00:49:38.962Z,52.40
2023-02-22T00:52:06.223Z,54.17
2023-02-22T00:54:33.292Z,49.17
2023-02-22T00:57:00.458Z,45.40
2023-02-22T00:59:27.512Z,43.97
2023-02-22T01:01:54.614Z,50.28
2023-02-22T01:04:21.777Z,42.30
2023-02-22T01:06:49.032Z,48.20
2023-02-22T01:09:16.051Z,58.90
2023-02-22T01:11:43.073Z,49.80
2023-02-22T01:14:11.566Z,46.55
2023-02-22T01:16:38.673Z,45.63
2023-02-22T01:19:06.295Z,47.40
2023-02-22T01:21:33.360Z,49.20
2023-02-22T01:24:00.401Z,45.03
2023-02-22T01:26:27.428Z,42.65
2023-02-22T01:28:54.462Z,53.30
2023-02-22T01:31:24.015Z,48.35
2023-02-22T01:33:51.378Z,45.08
2023-02-22T01:36:18.972Z,80.53
2023-02-22T01:38:46.157Z,60.50
2023-02-22T01:41:13.328Z,131.02
2023-02-22T01:43:40.400Z,176.60
2023-02-22T01:46:08.384Z,135.75
2023-02-22T01:48:42.498Z,60.42
2023-02-22T01:51:19.809Z,54.90
2023-02-22T01:54:07.273Z,54.63
2023-02-22T01:56:35.078Z,61.05
2023-02-22T01:59:02.957Z,67.38
2023-02-22T02:01:30.068Z,64.65
2023-02-22T02:04:00.768Z,50.25
2023-02-22T02:06:28.338Z,33.88
2023-02-22T02:09:00.700Z,103.82
2023-02-22T02:11:27.724Z,118.80
2023-02-22T02:13:55.293Z,64.22
2023-02-22T02:16:23.158Z,58.58
2023-02-22T02:18:50.321Z,58.08
2023-02-22T02:21:20.129Z,57.00
2023-02-22T02:23:59.441Z,60.95
2023-02-22T02:26:27.464Z,74.88
2023-02-22T02:28:57.288Z,75.82
2023-02-22T02:31:31.706Z,74.95
2023-02-22T02:34:20.354Z,57.63
2023-02-22T02:36:54.466Z,57.65
2023-02-22T02:39:25.391Z,59.40
2023-02-22T02:41:52.819Z,56.60
2023-02-22T02:44:40.165Z,60.30
2023-02-22T02:47:11.106Z,57.10
2023-02-22T02:49:40.688Z,54.83
2023-02-22T02:52:07.739Z,63.40
2023-02-22T02:54:35.458Z,59.50
2023-02-22T02:57:02.820Z,53.70
2023-02-22T02:59:30.781Z,56.17
2023-02-22T03:02:13.063Z,52.63
2023-02-22T03:04:54.190Z,50.33
2023-02-22T03:07:24.583Z,55.70
2023-02-22T03:09:53.040Z,64.30
2023-02-22T03:12:27.693Z,52.47
2023-02-22T03:14:55.937Z,44.95
2023-02-22T03:17:31.915Z,53.30
2023-02-22T03:19:59.666Z,48.38
2023-02-22T03:22:48.034Z,53.85
2023-02-22T03:25:15.900Z,50.13
2023-02-22T03:27:44.677Z,52.13
2023-02-22T03:30:12.963Z,47.50
2023-02-22T03:32:40.434Z,50.40
2023-02-22T03:35:11.755Z,48.10
2023-02-22T03:37:40.099Z,57.67
2023-02-22T03:40:14.029Z,74.20
2023-02-22T03:42:41.782Z,81.85
2023-02-22T03:45:10.048Z,55.70
2023-02-22T03:47:41.696Z,37.03
2023-02-22T03:50:11.873Z,32.22
2023-02-22T03:52:38.950Z,29.85
2023-02-22T03:55:11.080Z,29.35
2023-02-22T03:57:39.458Z,31.52
2023-02-22T04:00:07.646Z,33.05
2023-02-22T04:02:34.799Z,26.42
2023-02-22T04:05:01.986Z,26.08
2023-02-22T04:07:29.204Z,27.88
2023-02-22T04:09:56.318Z,29.55
2023-02-22T04:12:23.458Z,28.65
2023-02-22T04:14:50.590Z,26.88
2023-02-22T04:17:17.662Z,26.17
2023-02-22T04:19:45.728Z,25.27
2023-02-22T04:22:12.702Z,28.35
2023-02-22T04:24:39.689Z,27.60
2023-02-22T04:27:06.718Z,28.60
2023-02-22T04:29:33.782Z,25.60
2023-02-22T04:32:00.838Z,27.48
2023-02-22T04:34:27.829Z,30.58
2023-02-22T04:36:54.809Z,28.35
2023-02-22T04:39:21.940Z,28.65
2023-02-22T04:41:48.922Z,30.90
2023-02-22T04:44:15.944Z,29.23
2023-02-22T04:46:43.108Z,27.02
2023-02-22T04:49:10.127Z,29.05
2023-02-22T04:51:37.186Z,30.17
2023-02-22T04:54:04.290Z,25.45
2023-02-22T04:56:31.320Z,34.75
2023-02-22T04:58:58.503Z,32.80
2023-02-22T05:01:25.600Z,46.88
2023-02-22T05:03:52.605Z,36.35
2023-02-22T05:06:19.662Z,44.47
2023-02-22T05:08:46.802Z,57.40
2023-02-22T05:11:14.726Z,48.45
2023-02-22T05:13:42.320Z,45.97
2023-02-22T05:16:09.353Z,53.38
2023-02-22T05:18:36.369Z,45.35
2023-02-22T05:21:03.345Z,41.65
2023-02-22T05:23:30.363Z,52.05
2023-02-22T05:25:57.839Z,55.90
2023-02-22T05:28:24.878Z,67.53
2023-02-22T05:30:51.907Z,62.17
2023-02-22T05:33:18.953Z,63.63
2023-02-22T05:35:46.234Z,68.07
2023-02-22T05:38:14.885Z,60.40
2023-02-22T05:40:42.149Z,52.47
2023-02-22T05:43:09.427Z,63.88
2023-02-22T05:45:36.439Z,42.10
2023-02-22T05:48:03.556Z,37.28
2023-02-22T05:50:30.960Z,41.72
2023-02-22T05:52:58.066Z,47.72
2023-02-22T05:55:25.227Z,36.72
2023-02-22T05:57:52.593Z,36.65
2023-02-22T06:00:29.948Z,38.63
2023-02-22T06:03:06.903Z,36.05
2023-02-22T06:05:33.980Z,33.20
2023-02-22T06:08:00.992Z,49.60
2023-02-22T06:10:28.018Z,35.45
2023-02-22T06:12:55.112Z,30.40
2023-02-22T06:15:22.540Z,36.75
2023-02-22T06:17:49.642Z,41.58
2023-02-22T06:20:17.590Z,40.15
2023-02-22T06:22:45.588Z,44.97
2023-02-22T06:25:13.731Z,49.15
2023-02-22T06:27:40.821Z,64.25
2023-02-22T06:30:08.276Z,75.90
2023-02-22T06:32:35.291Z,85.75
2023-02-22T06:35:02.274Z,172.93
2023-02-22T06:37:29.324Z,95.68
2023-02-22T06:39:56.370Z,83.05
2023-02-22T06:42:24.007Z,116.32
2023-02-22T06:44:51.812Z,87.25
2023-02-22T06:47:18.899Z,83.28
2023-02-22T06:49:45.911Z,79.63
2023-02-22T06:52:12.948Z,80.40
2023-02-22T06:54:39.934Z,106.55
2023-02-22T06:57:08.362Z,83.25
2023-02-22T06:59:35.398Z,89.88
2023-02-22T07:02:03.860Z,98.95
2023-02-22T07:04:31.111Z,89.93
2023-02-22T07:06:58.183Z,63.28
2023-02-22T07:09:25.304Z,62.88
2023-02-22T07:11:53.630Z,73.40
2023-02-22T07:14:20.686Z,75.75
2023-02-22T07:16:47.758Z,56.33
2023-02-22T07:19:14.786Z,68.90
2023-02-22T07:21:41.796Z,65.38
2023-02-22T07:24:08.984Z,79.45
2023-02-22T07:26:40.509Z,54.55
2023-02-22T07:29:07.611Z,77.93
2023-02-22T07:31:38.124Z,80.07
2023-02-22T07:36:32.188Z,57.28
2023-02-22T07:38:59.256Z,54.47
2023-02-22T07:41:26.338Z,46.58
2023-02-22T07:43:53.740Z,42.75
2023-02-22T07:46:20.828Z,34.42
2023-02-22T07:48:47.878Z,28.45
2023-02-22T07:51:20.582Z,33.25
2023-02-22T07:53:47.658Z,28.25
2023-02-22T07:56:14.680Z,27.35
2023-02-22T07:58:41.683Z,23.58
2023-02-22T08:01:08.850Z,29.55
2023-02-22T08:03:36.749Z,27.98
2023-02-22T08:06:04.303Z,25.50
2023-02-22T08:08:31.411Z,25.33
2023-02-22T08:10:58.450Z,25.83
2023-02-22T08:13:25.449Z,25.58
2023-02-22T08:15:53.793Z,31.30
2023-02-22T08:18:21.079Z,36.53
2023-02-22T08:20:48.572Z,28.55
2023-02-22T08:23:15.726Z,23.52
2023-02-22T08:25:42.726Z,22.30
2023-02-22T08:28:10.553Z,19.10
2023-02-22T08:30:40.197Z,22.08
2023-02-22T08:33:07.645Z,19.15
2023-02-22T08:35:34.826Z,24.30
2023-02-22T08:38:02.776Z,16.67
2023-02-22T08:40:31.065Z,19.20
2023-02-22T08:42:58.239Z,17.65
2023-02-22T08:45:25.243Z,15.18
2023-02-22T08:47:52.520Z,17.67
2023-02-22T08:50:22.152Z,17.88
2023-02-22T08:52:51.210Z,14.50
2023-02-22T08:55:20.285Z,13.98
2023-02-22T08:57:47.281Z,13.07
2023-02-22T09:00:15.753Z,14.00
2023-02-22T09:02:42.732Z,16.38
2023-02-22T09:05:09.782Z,17.27
2023-02-22T09:07:36.754Z,15.98
2023-02-22T09:10:03.737Z,15.23
2023-02-22T09:12:31.329Z,15.45
2023-02-22T09:14:59.361Z,16.85
2023-02-22T09:17:26.331Z,17.13
2023-02-22T09:19:53.394Z,15.00
2023-02-22T09:22:20.408Z,12.57
2023-02-22T09:24:47.464Z,15.73
2023-02-22T09:27:14.891Z,14.07
2023-02-22T09:29:42.134Z,14.10
2023-02-22T09:32:09.283Z,16.10
2023-02-22T09:34:36.415Z,12.45
2023-02-22T09:37:04.989Z,12.90
2023-02-22T09:39:37.392Z,18.15
2023-02-22T09:42:09.529Z,13.02
2023-02-22T09:44:56.774Z,13.95
2023-02-22T09:47:39.323Z,15.13
2023-02-22T09:50:15.509Z,13.68
2023-02-22T09:52:53.935Z,14.00
2023-02-22T09:55:36.379Z,13.10
2023-02-22T09:58:04.315Z,13.40
2023-02-22T10:00:35.180Z,13.25
2023-02-22T10:03:21.641Z,12.27
2023-02-22T10:06:05.489Z,11.80
2023-02-22T10:08:33.371Z,12.32
2023-02-22T10:11:04.075Z,13.18
2023-02-22T10:13:34.701Z,13.48
2023-02-22T10:16:05.149Z,15.00
2023-02-22T10:18:32.714Z,13.32
2023-02-22T10:21:18.222Z,12.98
2023-02-22T10:23:51.699Z,13.48
2023-02-22T10:26:23.499Z,14.43
2023-02-22T10:28:50.587Z,14.80
2023-02-22T10:31:22.758Z,11.85
2023-02-22T10:33:51.800Z,15.18
2023-02-22T10:36:19.976Z,11.80
2023-02-22T10:38:59.079Z,13.63
2023-02-22T10:41:29.269Z,11.25
2023-02-22T10:43:56.317Z,12.88
2023-02-22T10:46:23.419Z,9.85
2023-02-22T10:48:51.630Z,11.20
2023-02-22T10:51:18.678Z,13.13
2023-02-22T10:53:45.710Z,15.18
2023-02-22T10:56:23.138Z,10.80
2023-02-22T10:58:52.221Z,11.65
2023-02-22T11:01:26.353Z,12.20
2023-02-22T11:04:00.449Z,17.48
2023-02-22T11:06:27.508Z,13.02
2023-02-22T11:09:05.124Z,14.07
2023-02-22T11:11:32.148Z,12.35
2023-02-22T11:14:00.608Z,14.38
2023-02-22T11:16:29.093Z,14.10
2023-02-22T11:19:03.754Z,13.68
2023-02-22T11:21:31.167Z,15.35
2023-02-22T11:24:01.941Z,15.90
2023-02-22T11:26:28.965Z,13.77
2023-02-22T11:28:56.156Z,15.85
2023-02-22T11:31:30.142Z,14.77
2023-02-22T11:33:58.767Z,13.23
2023-02-22T11:36:32.035Z,13.02
2023-02-22T11:39:00.827Z,14.82
2023-02-22T11:41:28.865Z,12.05
2023-02-22T11:43:55.947Z,13.60
2023-02-22T11:46:35.252Z,14.27
2023-02-22T11:49:20.389Z,11.93
2023-02-22T11:51:50.497Z,13.40
2023-02-22T11:54:31.270Z,13.82
2023-02-22T11:57:00.724Z,11.45
2023-02-22T11:59:32.306Z,17.67
2023-02-22T12:02:02.020Z,11.90
2023-02-22T12:04:36.471Z,14.48
2023-02-22T12:07:08.251Z,14.10
2023-02-22T12:09:44.407Z,13.90
2023-02-22T12:12:15.210Z,13.30
2023-02-22T12:14:55.485Z,13.30
2023-02-22T12:17:28.693Z,12.50
2023-02-22T12:19:57.132Z,13.65
2023-02-22T12:22:28.520Z,17.23
2023-02-22T12:25:09.823Z,17.08
2023-02-22T12:27:38.926Z,12.93
2023-02-22T12:30:07.644Z,13.50
2023-02-22T12:32:34.755Z,15.63
2023-02-22T12:35:08.527Z,17.35
2023-02-22T12:37:39.104Z,17.75
2023-02-22T12:42:54.809Z,16.77
2023-02-22T12:45:32.813Z,18.75
2023-02-22T12:48:19.946Z,18.98
2023-02-22T12:50:48.726Z,19.88
2023-02-22T12:53:20.375Z,19.63
2023-02-22T12:55:51.671Z,20.13
2023-02-22T12:58:31.171Z,19.60
2023-02-22T13:00:59.866Z,18.50
2023-02-22T13:03:26.909Z,23.05
2023-02-22T13:06:01.563Z,21.17
2023-02-22T13:08:30.893Z,20.38
2023-02-22T13:10:57.986Z,20.42
2023-02-22T13:13:40.174Z,18.30
2023-02-22T13:16:07.824Z,21.15
2023-02-22T13:18:34.913Z,21.92
2023-02-22T13:21:04.116Z,20.45
2023-02-22T13:23:49.946Z,19.08
2023-02-22T13:26:16.962Z,21.60
2023-02-22T13:28:45.487Z,22.63
2023-02-22T13:31:37.656Z,21.15
2023-02-22T13:34:05.698Z,18.67
2023-02-22T13:36:37.761Z,23.75
2023-02-22T13:39:10.924Z,21.50
2023-02-22T13:41:37.949Z,20.92
2023-02-22T13:44:10.777Z,20.42
2023-02-22T13:46:37.861Z,19.25
2023-02-22T13:49:28.186Z,18.13
2023-02-22T13:51:56.673Z,21.30
2023-02-22T13:54:46.138Z,22.42
2023-02-22T13:57:22.082Z,19.70
2023-02-22T13:59:49.159Z,25.08
2023-02-22T14:02:54.665Z,23.75
2023-02-22T14:05:42.990Z,22.33
2023-02-22T14:08:19.411Z,23.50
2023-02-22T14:10:49.958Z,25.70
2023-02-22T14:13:17.808Z,22.90
2023-02-22T14:16:00.452Z,23.65
2023-02-22T14:18:27.973Z,23.25
2023-02-22T14:21:14.240Z,24.40
2023-02-22T14:23:44.997Z,21.35
2023-02-22T14:26:18.471Z,28.90
2023-02-22T14:28:54.800Z,21.88
2023-02-22T14:31:35.374Z,21.02
2023-02-22T14:34:07.746Z,22.13
2023-02-22T14:36:34.735Z,22.92
2023-02-22T14:39:16.389Z,25.55
2023-02-22T14:41:45.247Z,23.77
2023-02-22T14:44:13.584Z,21.98
2023-02-22T14:46:41.555Z,21.00
2023-02-22T14:49:10.045Z,24.90
2023-02-22T14:51:43.437Z,20.30
2023-02-22T14:54:13.204Z,23.42
2023-02-22T14:56:44.014Z,23.25
2023-02-22T14:59:16.185Z,32.10
2023-02-22T15:01:58.458Z,27.55
2023-02-22T15:04:33.046Z,24.85
2023-02-22T15:07:00.843Z,29.75
2023-02-22T15:09:30.606Z,28.58
2023-02-22T15:12:05.263Z,25.13
2023-02-22T15:14:37.371Z,30.50
2023-02-22T15:17:06.739Z,25.55
2023-02-22T15:19:34.581Z,30.65
2023-02-22T15:22:01.900Z,28.05
2023-02-22T15:24:29.604Z,27.65
2023-02-22T15:27:02.215Z,30.13
2023-02-22T15:29:35.829Z,30.30
2023-02-22T15:32:03.002Z,28.50
2023-02-22T15:34:33.151Z,28.05
2023-02-22T15:37:19.558Z,32.13
2023-02-22T15:39:46.570Z,28.25
2023-02-22T15:42:20.743Z,29.83
2023-02-22T15:44:48.282Z,28.30
2023-02-22T15:47:25.351Z,31.65
2023-02-22T15:50:31.012Z,27.80
2023-02-22T15:52:58.177Z,26.30
2023-02-22T15:55:29.443Z,32.40
2023-02-22T15:57:57.808Z,29.17
2023-02-22T16:00:25.888Z,33.50
2023-02-22T16:02:52.950Z,35.15
2023-02-22T16:05:20.095Z,31.40
2023-02-22T16:07:50.489Z,34.65
2023-02-22T16:10:28.215Z,32.95
2023-02-22T16:13:11.148Z,33.97
2023-02-22T16:15:41.322Z,37.17
2023-02-22T16:18:47.104Z,37.30
2023-02-22T16:21:15.255Z,35.20
2023-02-22T16:23:51.012Z,32.90
2023-02-22T16:26:25.378Z,33.47
2023-02-22T16:28:53.893Z,32.15
2023-02-22T16:31:22.258Z,33.38
2023-02-22T16:33:51.096Z,34.65
2023-02-22T16:36:19.385Z,35.45
2023-02-22T16:38:48.311Z,33.97
2023-02-22T16:41:25.118Z,34.13
2023-02-22T16:43:52.251Z,34.47
2023-02-22T16:46:20.008Z,32.80
2023-02-22T16:48:47.368Z,33.95
2023-02-22T16:51:18.580Z,30.80
2023-02-22T16:53:45.634Z,32.25
2023-02-22T16:56:12.942Z,32.97
2023-02-22T16:58:40.099Z,32.10
2023-02-22T17:01:07.179Z,33.00
2023-02-22T17:03:34.258Z,31.65
2023-02-22T17:06:01.330Z,35.97
2023-02-22T17:08:28.334Z,35.78
2023-02-22T17:10:56.657Z,35.08
2023-02-22T17:13:26.977Z,41.63
2023-02-22T17:15:54.874Z,39.72
2023-02-22T17:18:22.497Z,38.17
2023-02-22T17:20:52.416Z,42.08
2023-02-22T17:23:19.628Z,41.33
2023-02-22T17:25:49.437Z,45.13
2023-02-22T17:28:16.819Z,35.33
2023-02-22T17:30:48.888Z,43.15
2023-02-22T17:33:16.943Z,41.20
2023-02-22T17:35:44.436Z,42.90
2023-02-22T17:38:11.485Z,41.17
2023-02-22T17:40:38.899Z,40.08
2023-02-22T17:43:08.598Z,41.08
2023-02-22T17:45:37.932Z,41.70
2023-02-22T17:48:05.436Z,42.78
2023-02-22T17:50:32.515Z,44.75
2023-02-22T17:53:03.183Z,44.38
2023-02-22T17:55:30.350Z,49.05
2023-02-22T17:57:58.275Z,48.50
2023-02-22T18:00:32.890Z,45.10
2023-02-22T18:03:10.244Z,44.38
2023-02-22T18:05:46.183Z,65.53
2023-02-22T18:08:13.479Z,48.75
2023-02-22T18:10:42.221Z,49.67
2023-02-22T18:13:09.766Z,45.97
2023-02-22T18:15:36.879Z,47.53
2023-02-22T18:18:05.175Z,44.03
2023-02-22T18:20:38.049Z,50.63
2023-02-22T18:23:07.459Z,49.92
2023-02-22T18:25:37.972Z,51.10
2023-02-22T18:30:33.698Z,44.72
2023-02-22T18:33:00.717Z,43.03
2023-02-22T18:35:28.032Z,43.70
2023-02-22T18:37:55.061Z,49.17
2023-02-22T18:40:23.753Z,47.03
2023-02-22T18:42:50.726Z,50.53
2023-02-22T18:45:18.033Z,49.75
2023-02-22T18:47:45.517Z,47.80
2023-02-22T18:50:12.933Z,51.35
2023-02-22T18:52:46.083Z,47.63
2023-02-22T18:55:13.977Z,51.50
2023-02-22T18:57:41.233Z,54.63
2023-02-22T19:00:09.223Z,51.53
2023-02-22T19:02:36.258Z,46.70
2023-02-22T19:05:03.827Z,45.00
2023-02-22T19:07:32.700Z,49.80
2023-02-22T19:10:00.536Z,47.03
2023-02-22T19:12:27.558Z,51.17
2023-02-22T19:14:54.718Z,47.13
2023-02-22T19:17:21.820Z,46.35
2023-02-22T19:19:49.052Z,51.90
2023-02-22T19:22:16.157Z,51.85
2023-02-22T19:24:43.572Z,50.67
2023-02-22T19:27:10.924Z,52.80
2023-02-22T19:29:38.929Z,42.90
2023-02-22T19:32:09.556Z,50.50
2023-02-22T19:34:37.053Z,47.08
2023-02-22T19:37:05.045Z,69.10
2023-02-22T19:39:32.754Z,69.75
2023-02-22T19:42:00.351Z,69.40
2023-02-22T19:44:27.668Z,54.25
2023-02-22T19:46:57.547Z,51.08
2023-02-22T19:51:52.833Z,48.97
2023-02-22T19:54:21.440Z,49.00
2023-02-22T19:56:51.074Z,47.78
2023-02-22T19:59:22.598Z,45.50
2023-02-22T20:01:49.860Z,48.00
2023-02-22T20:04:18.317Z,54.35
2023-02-22T20:06:45.903Z,47.10
2023-02-22T20:09:13.454Z,47.58
2023-02-22T20:11:40.502Z,51.88
2023-02-22T20:14:07.619Z,53.00
2023-02-22T20:16:35.248Z,53.95
2023-02-22T20:19:02.370Z,48.50
2023-02-22T20:21:33.004Z,53.22
2023-02-22T20:24:00.541Z,47.78
2023-02-22T20:26:28.848Z,53.05
2023-02-22T20:28:56.324Z,53.45
2023-02-22T20:31:23.416Z,51.90
2023-02-22T20:33:53.348Z,51.22
2023-02-22T20:36:23.626Z,56.92
2023-02-22T20:38:57.660Z,51.17
2023-02-22T20:41:28.601Z,50.97
2023-02-22T20:43:56.196Z,47.38
2023-02-22T20:46:23.691Z,49.08
2023-02-22T20:48:54.221Z,55.72
2023-02-22T20:53:48.851Z,69.60
2023-02-22T20:56:16.500Z,53.72
2023-02-22T20:58:43.780Z,55.17
2023-02-22T21:01:14.160Z,59.85
2023-02-22T21:03:44.623Z,67.32
2023-02-22T21:08:45.388Z,57.50
2023-02-22T21:11:15.957Z,63.17
2023-02-22T21:13:43.104Z,57.28
2023-02-22T21:16:10.598Z,54.83
2023-02-22T21:18:37.737Z,51.20
2023-02-22T21:21:10.226Z,59.00
2023-02-22T21:23:37.749Z,57.08
2023-02-22T21:26:05.066Z,51.33
2023-02-22T21:28:50.590Z,54.03
2023-02-22T21:31:19.193Z,49.78
2023-02-22T21:33:46.649Z,55.28
2023-02-22T21:36:13.835Z,50.05
2023-02-22T21:38:41.415Z,53.03
2023-02-22T21:41:10.775Z,43.97
2023-02-22T21:43:37.908Z,49.95
2023-02-22T21:46:05.464Z,50.22
2023-02-22T21:48:32.548Z,46.42
2023-02-22T21:51:01.100Z,55.83
2023-02-22T21:53:28.895Z,49.72
2023-02-22T21:55:56.102Z,67.18
2023-02-22T21:58:23.159Z,73.47
2023-02-22T22:00:50.189Z,75.10
2023-02-22T22:03:20.313Z,77.40
2023-02-22T22:05:48.217Z,80.95
2023-02-22T22:08:21.788Z,78.93
2023-02-22T22:10:55.444Z,76.38
2023-02-22T22:13:23.057Z,94.72
2023-02-22T22:15:50.470Z,150.75
2023-02-22T22:18:17.737Z,73.75
2023-02-22T22:20:44.989Z,66.93
2023-02-22T22:23:15.426Z,57.13
2023-02-22T22:25:43.606Z,60.65
2023-02-22T22:28:11.298Z,58.15
2023-02-22T22:30:38.511Z,63.50
2023-02-22T22:33:05.864Z,54.63
2023-02-22T22:35:33.524Z,58.58
2023-02-22T22:38:01.149Z,62.45
2023-02-22T22:40:28.517Z,55.92
2023-02-22T22:42:55.663Z,60.67
2023-02-22T22:45:22.799Z,61.30
2023-02-22T22:47:49.910Z,60.17
2023-02-22T22:50:26.186Z,65.00
2023-02-22T22:52:55.631Z,66.18
2023-02-22T22:55:24.253Z,63.30
2023-02-22T22:57:54.149Z,60.30
2023-02-22T23:00:36.993Z,56.30
2023-02-22T23:03:05.594Z,54.10
2023-02-22T23:05:36.966Z,59.63
2023-02-22T23:08:04.893Z,54.33
2023-02-22T23:10:32.940Z,52.03
2023-02-22T23:12:59.965Z,47.10
2023-02-22T23:15:27.113Z,48.72
2023-02-22T23:17:56.243Z,50.95
2023-02-22T23:20:26.245Z,39.05
2023-02-22T23:22:53.968Z,35.90
2023-02-22T23:25:21.389Z,40.47
2023-02-22T23:27:49.094Z,40.33
2023-02-22T23:30:18.591Z,39.88
2023-02-22T23:32:49.500Z,38.45
2023-02-22T23:35:16.611Z,38.50
2023-02-22T23:37:46.180Z,36.17
2023-02-22T23:40:16.985Z,33.70
2023-02-22T23:42:50.144Z,34.22
2023-02-22T23:45:22.579Z,29.25
2023-02-22T23:48:01.571Z,36.90
2023-02-22T23:50:29.118Z,34.53
2023-02-22T23:53:00.021Z,35.28
2023-02-22T23:55:27.656Z,48.58
2023-02-22T23:58:01.294Z,48.92
